Capitol Logistics 1815

Operating for CJT



CYHZ
Halifax / Stanfield International Airport
Halifax, CA
CYHM
John C. Munro Hamilton International Airport
Hamilton, CA

Activity Log

Date Flight Route Aircraft Duration
No Flights Yet

Route Details

Aircraft Information
Group: North America Fleet
Types: B738,B752,B762,B763
Route Data
Demand: H
Distance: 716nm
Duration: 2h 14m
Recm'd Route: KELNO Q806 ILUSI YYZ UDMIK3
Origin Wx: CYHZ 270500Z 20010G16KT 15SM OVC084 11/06 A3016 RMK AC8 SLP216
Dest. Wx: CYHM 270500Z 21008KT 15SM -RA FEW015 BKN022 OVC034 19/18 A2980 RMK CF1SC5SC2 SLP092 DENSITY ALT 1600FT
Notes:

Financial History
Total Freight: 0lbs
Average Load: 0lbs/flt
Fuel Used: 0lbs
Avg. Fuel Used: 0lbs/flt
Fuel Expense: $0
Avg. Fuel Expense: $0
Avg. Fuel Cost: $0/lbs
Total Gross Income: $0
Pilot Pay: $0
Total Expenses: $0
Total Revenue: $0
Average Revenue: $0